sensor_id;sensor_type;location;lat;lon;timestamp;pressure;altitude;pressure_sealevel;temperature;humidity
13594;BME280;6449;47.666;9.160;2024-02-26T00:00:23;95138.97;;;5.88;100.00
13594;BME280;6449;47.666;9.160;2024-02-26T00:05:16;95140.69;;;5.77;100.00
13594;BME280;6449;47.666;9.160;2024-02-26T00:10:14;95143.44;;;5.76;100.00
13594;BME280;6449;47.666;9.160;2024-02-26T00:15:10;95146.63;;;5.89;100.00
13594;BME280;6449;47.666;9.160;2024-02-26T00:20:05;95142.19;;;6.01;100.00
13594;BME280;6449;47.666;9.160;2024-02-26T00:25:01;95129.59;;;6.06;100.00
13594;BME280;6449;47.666;9.160;2024-02-26T00:29:56;95120.03;;;6.16;100.00
13594;BME280;6449;47.666;9.160;2024-02-26T00:34:49;95111.03;;;6.20;100.00
13594;BME280;6449;47.666;9.160;2024-02-26T00:39:47;95118.16;;;6.18;100.00
13594;BME280;6449;47.666;9.160;2024-02-26T00:44:41;95122.94;;;6.13;100.00
13594;BME280;6449;47.666;9.160;2024-02-26T00:49:36;95127.53;;;6.00;100.00
13594;BME280;6449;47.666;9.160;2024-02-26T00:54:30;95122.78;;;5.84;100.00
13594;BME280;6449;47.666;9.160;2024-02-26T00:59:23;95120.47;;;5.91;100.00
13594;BME280;6449;47.666;9.160;2024-02-26T01:04:17;95118.84;;;5.90;100.00
13594;BME280;6449;47.666;9.160;2024-02-26T01:09:12;95115.50;;;5.99;100.00
13594;BME280;6449;47.666;9.160;2024-02-26T01:14:05;95101.81;;;6.07;100.00
13594;BME280;6449;47.666;9.160;2024-02-26T01:18:59;95121.53;;;6.09;100.00
13594;BME280;6449;47.666;9.160;2024-02-26T01:23:53;95118.56;;;6.14;100.00
13594;BME280;6449;47.666;9.160;2024-02-26T01:28:49;95117.72;;;6.13;100.00
13594;BME280;6449;47.666;9.160;2024-02-26T01:33:42;95112.66;;;6.21;100.00
13594;BME280;6449;47.666;9.160;2024-02-26T01:38:36;95120.03;;;6.16;100.00
13594;BME280;6449;47.666;9.160;2024-02-26T01:43:29;95112.66;;;6.21;100.00
13594;BME280;6449;47.666;9.160;2024-02-26T01:48:24;95120.63;;;6.20;100.00
13594;BME280;6449;47.666;9.160;2024-02-26T01:53:19;95117.88;;;6.21;100.00
13594;BME280;6449;47.666;9.160;2024-02-26T01:58:13;95127.75;;;6.27;100.00
13594;BME280;6449;47.666;9.160;2024-02-26T02:03:09;95135.94;;;6.23;100.00
13594;BME280;6449;47.666;9.160;2024-02-26T02:08:05;95138.13;;;6.18;100.00
13594;BME280;6449;47.666;9.160;2024-02-26T02:12:59;95135.72;;;6.36;100.00
13594;BME280;6449;47.666;9.160;2024-02-26T02:17:54;95146.38;;;6.33;100.00
13594;BME280;6449;47.666;9.160;2024-02-26T02:22:49;95149.16;;;6.41;100.00
13594;BME280;6449;47.666;9.160;2024-02-26T02:27:43;95146.53;;;6.31;100.00
13594;BME280;6449;47.666;9.160;2024-02-26T02:32:40;95149.13;;;6.31;100.00
13594;BME280;6449;47.666;9.160;2024-02-26T02:37:38;95162.13;;;6.31;100.00
13594;BME280;6449;47.666;9.160;2024-02-26T02:42:33;95161.03;;;6.34;100.00
13594;BME280;6449;47.666;9.160;2024-02-26T02:47:29;95161.31;;;6.30;100.00
13594;BME280;6449;47.666;9.160;2024-02-26T02:52:23;95157.06;;;6.29;100.00
13594;BME280;6449;47.666;9.160;2024-02-26T02:57:16;95166.22;;;6.34;100.00
13594;BME280;6449;47.666;9.160;2024-02-26T03:02:11;95151.88;;;6.29;100.00
13594;BME280;6449;47.666;9.160;2024-02-26T03:07:07;95147.66;;;6.48;100.00
13594;BME280;6449;47.666;9.160;2024-02-26T03:12:01;95150.78;;;6.42;100.00
13594;BME280;6449;47.666;9.160;2024-02-26T03:16:55;95155.44;;;6.28;100.00
13594;BME280;6449;47.666;9.160;2024-02-26T03:21:50;95133.91;;;6.26;100.00
13594;BME280;6449;47.666;9.160;2024-02-26T03:26:43;95131.59;;;6.23;100.00
13594;BME280;6449;47.666;9.160;2024-02-26T03:31:36;95125.09;;;6.18;100.00
13594;BME280;6449;47.666;9.160;2024-02-26T03:36:30;95123.34;;;6.18;100.00
13594;BME280;6449;47.666;9.160;2024-02-26T03:41:24;95111.56;;;6.14;100.00
13594;BME280;6449;47.666;9.160;2024-02-26T03:46:18;95115.41;;;6.20;100.00
13594;BME280;6449;47.666;9.160;2024-02-26T03:51:11;95084.56;;;6.06;100.00
13594;BME280;6449;47.666;9.160;2024-02-26T03:56:06;95061.75;;;6.19;100.00
13594;BME280;6449;47.666;9.160;2024-02-26T04:01:01;95077.88;;;6.22;100.00
13594;BME280;6449;47.666;9.160;2024-02-26T04:05:54;95056.66;;;6.17;100.00
13594;BME280;6449;47.666;9.160;2024-02-26T04:10:48;95066.91;;;6.09;100.00
13594;BME280;6449;47.666;9.160;2024-02-26T04:15:42;95066.63;;;5.93;100.00
13594;BME280;6449;47.666;9.160;2024-02-26T04:20:36;95077.22;;;5.90;100.00
13594;BME280;6449;47.666;9.160;2024-02-26T04:25:30;95085.38;;;5.66;100.00
13594;BME280;6449;47.666;9.160;2024-02-26T04:30:31;95077.50;;;5.46;100.00
13594;BME280;6449;47.666;9.160;2024-02-26T04:35:24;95076.59;;;5.57;100.00
13594;BME280;6449;47.666;9.160;2024-02-26T04:40:19;95090.78;;;5.53;100.00
13594;BME280;6449;47.666;9.160;2024-02-26T04:45:13;95124.09;;;5.69;100.00
13594;BME280;6449;47.666;9.160;2024-02-26T04:50:07;95143.44;;;5.76;100.00
13594;BME280;6449;47.666;9.160;2024-02-26T04:55:01;95146.06;;;5.86;100.00
13594;BME280;6449;47.666;9.160;2024-02-26T04:59:56;95151.16;;;5.87;100.00
13594;BME280;6449;47.666;9.160;2024-02-26T05:04:50;95157.53;;;6.04;100.00
13594;BME280;6449;47.666;9.160;2024-02-26T05:09:44;95169.56;;;6.05;100.00
13594;BME280;6449;47.666;9.160;2024-02-26T05:14:39;95175.22;;;6.10;100.00
13594;BME280;6449;47.666;9.160;2024-02-26T05:19:34;95160.56;;;6.09;100.00
13594;BME280;6449;47.666;9.160;2024-02-26T05:24:28;95154.69;;;6.17;100.00
13594;BME280;6449;47.666;9.160;2024-02-26T05:29:22;95166.09;;;6.25;100.00
13594;BME280;6449;47.666;9.160;2024-02-26T05:34:15;95172.94;;;6.26;100.00
13594;BME280;6449;47.666;9.160;2024-02-26T05:39:10;95161.38;;;6.10;100.00
13594;BME280;6449;47.666;9.160;2024-02-26T05:44:12;95187.97;;;6.13;100.00
13594;BME280;6449;47.666;9.160;2024-02-26T05:49:07;95189.31;;;6.08;100.00
13594;BME280;6449;47.666;9.160;2024-02-26T05:54:00;95190.78;;;6.00;100.00
13594;BME280;6449;47.666;9.160;2024-02-26T05:58:55;95190.53;;;6.03;100.00
13594;BME280;6449;47.666;9.160;2024-02-26T06:03:49;95191.59;;;6.01;100.00
13594;BME280;6449;47.666;9.160;2024-02-26T06:08:43;95201.47;;;6.07;100.00
13594;BME280;6449;47.666;9.160;2024-02-26T06:13:36;95206.28;;;6.02;100.00
13594;BME280;6449;47.666;9.160;2024-02-26T06:18:32;95221.47;;;6.07;100.00
13594;BME280;6449;47.666;9.160;2024-02-26T06:23:25;95223.13;;;6.08;100.00
13594;BME280;6449;47.666;9.160;2024-02-26T06:28:19;95230.22;;;6.06;100.00
13594;BME280;6449;47.666;9.160;2024-02-26T06:33:13;95239.94;;;6.03;100.00
13594;BME280;6449;47.666;9.160;2024-02-26T06:38:08;95232.81;;;6.06;100.00
13594;BME280;6449;47.666;9.160;2024-02-26T06:43:08;95238.31;;;6.02;100.00
13594;BME280;6449;47.666;9.160;2024-02-26T06:48:06;95256.38;;;6.04;100.00
13594;BME280;6449;47.666;9.160;2024-02-26T06:53:00;95257.88;;;6.07;100.00
13594;BME280;6449;47.666;9.160;2024-02-26T06:57:54;95265.31;;;6.11;100.00
13594;BME280;6449;47.666;9.160;2024-02-26T07:02:48;95251.91;;;6.16;100.00
13594;BME280;6449;47.666;9.160;2024-02-26T07:08:17;95243.84;;;6.19;100.00
13594;BME280;6449;47.666;9.160;2024-02-26T07:13:29;95235.38;;;6.26;100.00
13594;BME280;6449;47.666;9.160;2024-02-26T07:18:25;95239.94;;;6.34;100.00
13594;BME280;6449;47.666;9.160;2024-02-26T07:23:18;95237.34;;;6.44;100.00
13594;BME280;6449;47.666;9.160;2024-02-26T07:28:12;95239.56;;;6.48;100.00
13594;BME280;6449;47.666;9.160;2024-02-26T07:33:10;95239.34;;;6.61;100.00
13594;BME280;6449;47.666;9.160;2024-02-26T07:38:04;95237.03;;;6.68;100.00
13594;BME280;6449;47.666;9.160;2024-02-26T07:43:01;95237.31;;;6.74;100.00
13594;BME280;6449;47.666;9.160;2024-02-26T07:47:57;95247.91;;;6.82;100.00
13594;BME280;6449;47.666;9.160;2024-02-26T07:52:52;95244.59;;;6.90;100.00
13594;BME280;6449;47.666;9.160;2024-02-26T07:57:46;95242.41;;;6.95;100.00
13594;BME280;6449;47.666;9.160;2024-02-26T08:02:39;95246.66;;;6.96;100.00
13594;BME280;6449;47.666;9.160;2024-02-26T08:07:33;95246.00;;;7.04;100.00
13594;BME280;6449;47.666;9.160;2024-02-26T08:12:35;95253.16;;;7.21;100.00
13594;BME280;6449;47.666;9.160;2024-02-26T08:17:29;95256.28;;;7.34;100.00
13594;BME280;6449;47.666;9.160;2024-02-26T08:22:24;95252.19;;;7.51;100.00
13594;BME280;6449;47.666;9.160;2024-02-26T08:27:18;95246.94;;;7.80;100.00
13594;BME280;6449;47.666;9.160;2024-02-26T08:32:18;95237.97;;;8.02;100.00
13594;BME280;6449;47.666;9.160;2024-02-26T08:37:14;95247.38;;;8.23;100.00
13594;BME280;6449;47.666;9.160;2024-02-26T08:42:08;95246.72;;;8.21;100.00
13594;BME280;6449;47.666;9.160;2024-02-26T08:47:01;95243.97;;;8.12;100.00
13594;BME280;6449;47.666;9.160;2024-02-26T08:51:56;95248.88;;;8.25;100.00
13594;BME280;6449;47.666;9.160;2024-02-26T08:56:49;95261.63;;;8.48;100.00
13594;BME280;6449;47.666;9.160;2024-02-26T09:01:43;95267.34;;;8.79;100.00
13594;BME280;6449;47.666;9.160;2024-02-26T09:06:37;95265.56;;;9.07;100.00
13594;BME280;6449;47.666;9.160;2024-02-26T09:11:32;95252.66;;;9.41;100.00
13594;BME280;6449;47.666;9.160;2024-02-26T09:16:25;95258.34;;;9.54;100.00
13594;BME280;6449;47.666;9.160;2024-02-26T09:21:18;95269.94;;;9.69;100.00
13594;BME280;6449;47.666;9.160;2024-02-26T09:26:15;95264.00;;;9.67;100.00
13594;BME280;6449;47.666;9.160;2024-02-26T09:31:17;95273.59;;;9.23;100.00
13594;BME280;6449;47.666;9.160;2024-02-26T09:36:11;95283.06;;;9.24;100.00
13594;BME280;6449;47.666;9.160;2024-02-26T09:41:05;95276.53;;;9.10;100.00
13594;BME280;6449;47.666;9.160;2024-02-26T09:45:58;95286.31;;;8.90;100.00
13594;BME280;6449;47.666;9.160;2024-02-26T09:50:56;95275.16;;;8.88;100.00
13594;BME280;6449;47.666;9.160;2024-02-26T09:55:50;95278.53;;;8.99;100.00
13594;BME280;6449;47.666;9.160;2024-02-26T10:00:49;95278.69;;;8.97;100.00
13594;BME280;6449;47.666;9.160;2024-02-26T10:05:45;95278.84;;;8.96;100.00
13594;BME280;6449;47.666;9.160;2024-02-26T10:10:41;95283.75;;;8.99;100.00
13594;BME280;6449;47.666;9.160;2024-02-26T10:15:34;95265.13;;;9.11;100.00
13594;BME280;6449;47.666;9.160;2024-02-26T10:20:28;95263.94;;;9.06;100.00
13594;BME280;6449;47.666;9.160;2024-02-26T10:25:23;95276.19;;;9.23;100.00
13594;BME280;6449;47.666;9.160;2024-02-26T10:30:20;95289.97;;;9.15;100.00
13594;BME280;6449;47.666;9.160;2024-02-26T10:35:15;95290.53;;;9.19;100.00
13594;BME280;6449;47.666;9.160;2024-02-26T10:40:11;95288.13;;;9.26;100.00
13594;BME280;6449;47.666;9.160;2024-02-26T10:45:05;95293.81;;;9.21;100.00
13594;BME280;6449;47.666;9.160;2024-02-26T10:50:02;95300.75;;;9.12;100.00
13594;BME280;6449;47.666;9.160;2024-02-26T10:55:00;95306.56;;;9.06;100.00
13594;BME280;6449;47.666;9.160;2024-02-26T10:59:58;95307.09;;;9.10;100.00
13594;BME280;6449;47.666;9.160;2024-02-26T11:04:53;95309.69;;;9.10;100.00
13594;BME280;6449;47.666;9.160;2024-02-26T11:09:50;95320.97;;;9.10;100.00
13594;BME280;6449;47.666;9.160;2024-02-26T11:14:46;95316.78;;;9.00;100.00
13594;BME280;6449;47.666;9.160;2024-02-26T11:19:43;95317.22;;;8.95;100.00
13594;BME280;6449;47.666;9.160;2024-02-26T11:24:38;95309.06;;;8.98;100.00
13594;BME280;6449;47.666;9.160;2024-02-26T11:29:41;95300.22;;;9.09;100.00
13594;BME280;6449;47.666;9.160;2024-02-26T11:34:38;95314.06;;;9.19;100.00
13594;BME280;6449;47.666;9.160;2024-02-26T11:39:33;95290.25;;;9.40;100.00
13594;BME280;6449;47.666;9.160;2024-02-26T11:44:30;95299.13;;;9.29;100.00
13594;BME280;6449;47.666;9.160;2024-02-26T11:49:31;95284.78;;;9.51;100.00
13594;BME280;6449;47.666;9.160;2024-02-26T11:54:47;95298.31;;;9.47;100.00
13594;BME280;6449;47.666;9.160;2024-02-26T11:59:45;95300.81;;;9.48;100.00
13594;BME280;6449;47.666;9.160;2024-02-26T12:04:39;95308.19;;;9.53;100.00
13594;BME280;6449;47.666;9.160;2024-02-26T12:09:39;95302.59;;;9.65;100.00
13594;BME280;6449;47.666;9.160;2024-02-26T12:14:34;95303.84;;;9.79;100.00
13594;BME280;6449;47.666;9.160;2024-02-26T12:19:28;95320.72;;;9.85;100.00
13594;BME280;6449;47.666;9.160;2024-02-26T12:24:25;95298.53;;;9.89;100.00
13594;BME280;6449;47.666;9.160;2024-02-26T12:29:18;95301.34;;;9.95;100.00
13594;BME280;6449;47.666;9.160;2024-02-26T12:34:13;95292.06;;;10.01;100.00
13594;BME280;6449;47.666;9.160;2024-02-26T12:39:08;95288.09;;;10.15;100.00
13594;BME280;6449;47.666;9.160;2024-02-26T12:44:04;95310.97;;;10.31;100.00
13594;BME280;6449;47.666;9.160;2024-02-26T12:48:59;95308.41;;;10.39;100.00
13594;BME280;6449;47.666;9.160;2024-02-26T12:53:53;95315.56;;;10.55;100.00
13594;BME280;6449;47.666;9.160;2024-02-26T12:58:48;95297.22;;;10.55;100.00
13594;BME280;6449;47.666;9.160;2024-02-26T13:03:45;95295.59;;;10.62;100.00
13594;BME280;6449;47.666;9.160;2024-02-26T13:08:38;95302.38;;;10.72;100.00
13594;BME280;6449;47.666;9.160;2024-02-26T13:13:32;95295.69;;;10.86;100.00
13594;BME280;6449;47.666;9.160;2024-02-26T13:18:28;95285.72;;;10.82;100.00
13594;BME280;6449;47.666;9.160;2024-02-26T13:23:24;95286.53;;;10.82;100.00
13594;BME280;6449;47.666;9.160;2024-02-26T13:28:18;95282.47;;;10.88;100.00
13594;BME280;6449;47.666;9.160;2024-02-26T13:33:15;95300.56;;;10.73;100.00
13594;BME280;6449;47.666;9.160;2024-02-26T13:38:10;95289.72;;;10.68;100.00
13594;BME280;6449;47.666;9.160;2024-02-26T13:43:06;95278.09;;;10.70;100.00
13594;BME280;6449;47.666;9.160;2024-02-26T13:48:03;95271.97;;;10.88;100.00
13594;BME280;6449;47.666;9.160;2024-02-26T13:52:57;95279.72;;;10.97;100.00
13594;BME280;6449;47.666;9.160;2024-02-26T13:57:50;95280.19;;;10.93;100.00
13594;BME280;6449;47.666;9.160;2024-02-26T14:02:47;95271.22;;;11.12;100.00
13594;BME280;6449;47.666;9.160;2024-02-26T14:07:41;95273.00;;;11.03;100.00
13594;BME280;6449;47.666;9.160;2024-02-26T14:12:35;95273.78;;;10.95;100.00
13594;BME280;6449;47.666;9.160;2024-02-26T14:17:29;95270.34;;;10.87;100.00
13594;BME280;6449;47.666;9.160;2024-02-26T14:22:24;95270.09;;;10.72;100.00
13594;BME280;6449;47.666;9.160;2024-02-26T14:27:19;95280.19;;;10.59;100.00
13594;BME280;6449;47.666;9.160;2024-02-26T14:32:14;95282.34;;;10.37;100.00
13594;BME280;6449;47.666;9.160;2024-02-26T14:37:08;95273.78;;;10.27;100.00
13594;BME280;6449;47.666;9.160;2024-02-26T14:42:03;95269.28;;;10.19;100.00
13594;BME280;6449;47.666;9.160;2024-02-26T14:46:58;95275.00;;;10.15;100.00
13594;BME280;6449;47.666;9.160;2024-02-26T14:51:51;95283.31;;;10.10;100.00
13594;BME280;6449;47.666;9.160;2024-02-26T14:56:45;95298.81;;;10.04;100.00
13594;BME280;6449;47.666;9.160;2024-02-26T15:01:41;95294.84;;;10.00;100.00
13594;BME280;6449;47.666;9.160;2024-02-26T15:06:38;95300.06;;;10.00;100.00
13594;BME280;6449;47.666;9.160;2024-02-26T15:11:32;95316.41;;;9.93;100.00
13594;BME280;6449;47.666;9.160;2024-02-26T15:16:25;95316.84;;;9.89;100.00
13594;BME280;6449;47.666;9.160;2024-02-26T15:21:20;95326.94;;;9.84;100.00
13594;BME280;6449;47.666;9.160;2024-02-26T15:26:13;95324.66;;;9.81;100.00
13594;BME280;6449;47.666;9.160;2024-02-26T15:31:07;95324.47;;;9.82;100.00
13594;BME280;6449;47.666;9.160;2024-02-26T15:36:07;95337.56;;;9.82;100.00
13594;BME280;6449;47.666;9.160;2024-02-26T15:41:11;95336.75;;;9.82;100.00
13594;BME280;6449;47.666;9.160;2024-02-26T15:46:05;95351.19;;;9.86;100.00
13594;BME280;6449;47.666;9.160;2024-02-26T15:50:59;95357.25;;;9.86;100.00
13594;BME280;6449;47.666;9.160;2024-02-26T15:55:53;95363.31;;;9.87;100.00
13594;BME280;6449;47.666;9.160;2024-02-26T16:00:48;95368.00;;;9.83;100.00
13594;BME280;6449;47.666;9.160;2024-02-26T16:05:41;95381.41;;;9.80;100.00
13594;BME280;6449;47.666;9.160;2024-02-26T16:10:35;95385.72;;;9.71;100.00
13594;BME280;6449;47.666;9.160;2024-02-26T16:15:29;95391.41;;;9.67;100.00
13594;BME280;6449;47.666;9.160;2024-02-26T16:20:26;95392.38;;;9.66;100.00
13594;BME280;6449;47.666;9.160;2024-02-26T16:25:21;95396.25;;;9.62;100.00
13594;BME280;6449;47.666;9.160;2024-02-26T16:30:16;95409.91;;;9.56;100.00
13594;BME280;6449;47.666;9.160;2024-02-26T16:35:09;95412.81;;;9.53;100.00
13594;BME280;6449;47.666;9.160;2024-02-26T16:40:06;95425.22;;;9.51;100.00
13594;BME280;6449;47.666;9.160;2024-02-26T16:45:02;95447.41;;;9.47;100.00
13594;BME280;6449;47.666;9.160;2024-02-26T16:49:56;95444.13;;;9.44;100.00
13594;BME280;6449;47.666;9.160;2024-02-26T16:54:50;95455.25;;;9.47;100.00
13594;BME280;6449;47.666;9.160;2024-02-26T16:59:45;95455.69;;;9.42;100.00
13594;BME280;6449;47.666;9.160;2024-02-26T17:04:38;95464.53;;;9.31;100.00
13594;BME280;6449;47.666;9.160;2024-02-26T17:09:32;95466.75;;;9.26;100.00
13594;BME280;6449;47.666;9.160;2024-02-26T17:14:26;95468.94;;;9.31;100.00
13594;BME280;6449;47.666;9.160;2024-02-26T17:19:24;95461.41;;;9.28;100.00
13594;BME280;6449;47.666;9.160;2024-02-26T17:24:18;95471.31;;;9.24;100.00
13594;BME280;6449;47.666;9.160;2024-02-26T17:29:11;95477.94;;;9.18;100.00
13594;BME280;6449;47.666;9.160;2024-02-26T17:34:04;95474.13;;;9.13;100.00
13594;BME280;6449;47.666;9.160;2024-02-26T17:38:59;95482.94;;;9.12;100.00
13594;BME280;6449;47.666;9.160;2024-02-26T17:43:53;95481.56;;;9.08;100.00
13594;BME280;6449;47.666;9.160;2024-02-26T17:48:46;95486.66;;;9.00;100.00
13594;BME280;6449;47.666;9.160;2024-02-26T17:53:40;95501.66;;;8.98;100.00
13594;BME280;6449;47.666;9.160;2024-02-26T17:58:37;95506.34;;;8.94;100.00
13594;BME280;6449;47.666;9.160;2024-02-26T18:03:33;95495.50;;;8.89;100.00
13594;BME280;6449;47.666;9.160;2024-02-26T18:08:27;95500.31;;;8.84;100.00
13594;BME280;6449;47.666;9.160;2024-02-26T18:13:25;95502.41;;;8.80;100.00
13594;BME280;6449;47.666;9.160;2024-02-26T18:18:20;95505.97;;;8.79;100.00
13594;BME280;6449;47.666;9.160;2024-02-26T18:23:13;95503.09;;;8.73;100.00
13594;BME280;6449;47.666;9.160;2024-02-26T18:28:07;95506.97;;;8.69;100.00
13594;BME280;6449;47.666;9.160;2024-02-26T18:33:00;95509.97;;;8.64;100.00
13594;BME280;6449;47.666;9.160;2024-02-26T18:37:57;95527.97;;;8.57;100.00
13594;BME280;6449;47.666;9.160;2024-02-26T18:42:50;95535.00;;;8.47;100.00
13594;BME280;6449;47.666;9.160;2024-02-26T18:47:43;95553.28;;;8.47;100.00
13594;BME280;6449;47.666;9.160;2024-02-26T18:52:37;95555.88;;;8.37;100.00
13594;BME280;6449;47.666;9.160;2024-02-26T18:57:33;95562.16;;;8.35;100.00
13594;BME280;6449;47.666;9.160;2024-02-26T19:02:28;95573.44;;;8.26;100.00
13594;BME280;6449;47.666;9.160;2024-02-26T19:07:22;95573.84;;;8.21;100.00
13594;BME280;6449;47.666;9.160;2024-02-26T19:12:15;95576.69;;;8.18;100.00
13594;BME280;6449;47.666;9.160;2024-02-26T19:17:10;95568.59;;;8.11;100.00
13594;BME280;6449;47.666;9.160;2024-02-26T19:22:04;95572.41;;;8.07;100.00
13594;BME280;6449;47.666;9.160;2024-02-26T19:27:05;95581.03;;;7.98;100.00
13594;BME280;6449;47.666;9.160;2024-02-26T19:31:58;95585.00;;;7.93;100.00
13594;BME280;6449;47.666;9.160;2024-02-26T19:36:53;95591.34;;;7.90;100.00
13594;BME280;6449;47.666;9.160;2024-02-26T19:41:46;95589.69;;;7.89;100.00
13594;BME280;6449;47.666;9.160;2024-02-26T19:46:40;95592.53;;;7.86;100.00
13594;BME280;6449;47.666;9.160;2024-02-26T19:51:33;95597.19;;;7.82;100.00
13594;BME280;6449;47.666;9.160;2024-02-26T19:56:29;95600.91;;;7.80;100.00
13594;BME280;6449;47.666;9.160;2024-02-26T20:01:26;95612.41;;;7.77;100.00
13594;BME280;6449;47.666;9.160;2024-02-26T20:06:19;95623.28;;;7.82;100.00
13594;BME280;6449;47.666;9.160;2024-02-26T20:11:15;95624.91;;;7.74;100.00
13594;BME280;6449;47.666;9.160;2024-02-26T20:16:12;95643.56;;;7.69;100.00
13594;BME280;6449;47.666;9.160;2024-02-26T20:21:05;95654.22;;;7.66;100.00
13594;BME280;6449;47.666;9.160;2024-02-26T20:25:59;95661.22;;;7.66;100.00
13594;BME280;6449;47.666;9.160;2024-02-26T20:30:53;95653.25;;;7.57;100.00
13594;BME280;6449;47.666;9.160;2024-02-26T20:35:47;95655.28;;;7.54;100.00
13594;BME280;6449;47.666;9.160;2024-02-26T20:40:41;95663.34;;;7.51;100.00
13594;BME280;6449;47.666;9.160;2024-02-26T20:45:34;95686.19;;;7.38;100.00
13594;BME280;6449;47.666;9.160;2024-02-26T20:50:28;95695.84;;;7.47;100.00
13594;BME280;6449;47.666;9.160;2024-02-26T20:55:24;95702.78;;;7.37;100.00
13594;BME280;6449;47.666;9.160;2024-02-26T21:00:18;95719.38;;;7.35;100.00
13594;BME280;6449;47.666;9.160;2024-02-26T21:05:15;95731.00;;;7.31;100.00
13594;BME280;6449;47.666;9.160;2024-02-26T21:10:09;95731.38;;;7.27;100.00
13594;BME280;6449;47.666;9.160;2024-02-26T21:15:08;95755.53;;;7.29;100.00
13594;BME280;6449;47.666;9.160;2024-02-26T21:20:04;95751.28;;;7.28;100.00
13594;BME280;6449;47.666;9.160;2024-02-26T21:24:58;95748.22;;;7.23;100.00
13594;BME280;6449;47.666;9.160;2024-02-26T21:29:53;95770.53;;;7.16;100.00
13594;BME280;6449;47.666;9.160;2024-02-26T21:34:48;95790.09;;;7.10;100.00
13594;BME280;6449;47.666;9.160;2024-02-26T21:39:45;95781.47;;;6.98;100.00
13594;BME280;6449;47.666;9.160;2024-02-26T21:44:39;95786.56;;;7.00;100.00
13594;BME280;6449;47.666;9.160;2024-02-26T21:49:33;95789.31;;;6.87;100.00
13594;BME280;6449;47.666;9.160;2024-02-26T21:54:31;95797.22;;;6.86;100.00
13594;BME280;6449;47.666;9.160;2024-02-26T21:59:25;95798.88;;;6.75;100.00
13594;BME280;6449;47.666;9.160;2024-02-26T22:04:21;95808.00;;;6.81;100.00
13594;BME280;6449;47.666;9.160;2024-02-26T22:09:15;95822.47;;;6.74;100.00
13594;BME280;6449;47.666;9.160;2024-02-26T22:14:09;95821.16;;;6.79;100.00
13594;BME280;6449;47.666;9.160;2024-02-26T22:19:03;95831.91;;;6.86;100.00
13594;BME280;6449;47.666;9.160;2024-02-26T22:23:57;95823.63;;;6.92;100.00
13594;BME280;6449;47.666;9.160;2024-02-26T22:28:51;95832.03;;;6.96;100.00
13594;BME280;6449;47.666;9.160;2024-02-26T22:33:46;95833.69;;;6.97;100.00
13594;BME280;6449;47.666;9.160;2024-02-26T22:38:39;95842.44;;;6.96;100.00
13594;BME280;6449;47.666;9.160;2024-02-26T22:43:32;95840.31;;;7.01;100.00
13594;BME280;6449;47.666;9.160;2024-02-26T22:48:26;95836.06;;;7.00;100.00
13594;BME280;6449;47.666;9.160;2024-02-26T22:53:21;95836.63;;;7.15;100.00
13594;BME280;6449;47.666;9.160;2024-02-26T22:58:14;95842.34;;;7.08;100.00
13594;BME280;6449;47.666;9.160;2024-02-26T23:03:08;95850.13;;;6.97;100.00
13594;BME280;6449;47.666;9.160;2024-02-26T23:08:02;95844.22;;;6.95;100.00
13594;BME280;6449;47.666;9.160;2024-02-26T23:12:58;95865.28;;;6.92;100.00
13594;BME280;6449;47.666;9.160;2024-02-26T23:17:52;95860.44;;;6.76;100.00
13594;BME280;6449;47.666;9.160;2024-02-26T23:22:48;95875.50;;;6.73;100.00
13594;BME280;6449;47.666;9.160;2024-02-26T23:27:44;95871.13;;;6.73;100.00
13594;BME280;6449;47.666;9.160;2024-02-26T23:32:40;95885.78;;;6.74;100.00
13594;BME280;6449;47.666;9.160;2024-02-26T23:37:34;95894.09;;;6.68;100.00
13594;BME280;6449;47.666;9.160;2024-02-26T23:42:28;95901.06;;;6.68;100.00
13594;BME280;6449;47.666;9.160;2024-02-26T23:47:21;95924.03;;;6.74;100.00
13594;BME280;6449;47.666;9.160;2024-02-26T23:52:19;95931.97;;;6.83;100.00
13594;BME280;6449;47.666;9.160;2024-02-26T23:57:12;95932.34;;;6.90;100.00
